Time;durP1;ratioP1;P1;durP2;ratioP2;P2;SDS_P1;SDS_P2;PMS_P1;PMS_P2;Temp;Humidity;BMP_temperature;BMP_pressure;BME280_temperature;BME280_humidity;BME280_pressure;Samples;Min_cycle;Max_cycle;Signal;HPM_P1;HPM_P2
2021/05/12 00:00:53;;;;;;;1.07;0.70;;;;;;;;;;4916059;28;20324;-86
2021/05/12 00:03:22;;;;;;;0.60;0.60;;;;;;;;;;4923703;29;20231;-86
2021/05/12 00:05:50;;;;;;;0.50;0.50;;;;;;;;;;4941042;28;20231;-86
2021/05/12 00:08:19;;;;;;;0.60;0.60;;;;;;;;;;4931801;29;20225;-89
2021/05/12 00:10:46;;;;;;;0.50;0.50;;;;;;;;;;4945039;28;20226;-89
2021/05/12 00:13:14;;;;;;;0.50;0.50;;;;;;;;;;4917819;29;20227;-82
2021/05/12 00:15:42;;;;;;;0.60;0.60;;;;;;;;;;4932873;28;20239;-87
2021/05/12 00:18:23;;;;;;;0.40;0.40;;;;;;;;;;4914876;28;20613;-82
2021/05/12 00:20:51;;;;;;;1.63;0.50;;;;;;;;;;4914668;28;20234;-80
2021/05/12 00:23:23;;;;;;;0.40;0.40;;;;;;;;;;4934858;28;20230;-80
2021/05/12 00:25:51;;;;;;;0.50;0.50;;;;;;;;;;4931715;28;20240;-83
2021/05/12 00:28:19;;;;;;;0.77;0.60;;;;;;;;;;4909864;29;20227;-83
2021/05/12 00:30:47;;;;;;;1.63;0.60;;;;;;;;;;4912700;29;20224;-81
2021/05/12 00:33:34;;;;;;;0.50;0.50;;;;;;;;;;4926830;28;20228;-83
2021/05/12 00:36:03;;;;;;;0.50;0.50;;;;;;;;;;4915190;28;20232;-84
2021/05/12 00:38:32;;;;;;;0.90;0.70;;;;;;;;;;4912493;29;20223;-80
2021/05/12 00:41:00;;;;;;;0.60;0.60;;;;;;;;;;4919946;28;20242;-82
2021/05/12 00:43:28;;;;;;;0.67;0.60;;;;;;;;;;4914291;28;20253;-79
2021/05/12 00:46:15;;;;;;;0.60;0.60;;;;;;;;;;4920138;28;20236;-80
2021/05/12 00:48:43;;;;;;;0.50;0.50;;;;;;;;;;4918054;28;20235;-82
2021/05/12 00:51:11;;;;;;;2.33;0.60;;;;;;;;;;4922666;28;20224;-81
2021/05/12 00:53:40;;;;;;;0.57;0.50;;;;;;;;;;4925493;28;20231;-81
2021/05/12 00:56:10;;;;;;;0.50;0.50;;;;;;;;;;4921382;28;20231;-79
2021/05/12 00:58:39;;;;;;;1.77;0.50;;;;;;;;;;4918438;28;20344;-79
2021/05/12 01:01:08;;;;;;;0.57;0.57;;;;;;;;;;4905784;28;20224;-79
2021/05/12 01:03:36;;;;;;;0.57;0.57;;;;;;;;;;4909355;29;20235;-79
2021/05/12 01:06:05;;;;;;;0.50;0.50;;;;;;;;;;4907165;28;20228;-80
2021/05/12 01:08:33;;;;;;;1.03;0.50;;;;;;;;;;4902443;28;20232;-80
2021/05/12 01:11:01;;;;;;;0.50;0.50;;;;;;;;;;4919742;28;20723;-79
2021/05/12 01:13:29;;;;;;;2.00;0.67;;;;;;;;;;4910383;28;20757;-80
2021/05/12 01:15:58;;;;;;;0.50;0.40;;;;;;;;;;4931033;28;20229;-80
2021/05/12 01:18:26;;;;;;;0.50;0.50;;;;;;;;;;4932910;28;20606;-80
2021/05/12 01:20:56;;;;;;;1.70;0.67;;;;;;;;;;4919446;28;20233;-80
2021/05/12 01:23:26;;;;;;;0.40;0.40;;;;;;;;;;4933050;28;20243;-80
2021/05/12 01:25:55;;;;;;;0.50;0.50;;;;;;;;;;4928184;28;20235;-80
2021/05/12 01:28:25;;;;;;;0.53;0.50;;;;;;;;;;4924195;28;20242;-79
2021/05/12 01:30:57;;;;;;;0.53;0.40;;;;;;;;;;4915886;28;20656;-79
2021/05/12 01:33:25;;;;;;;1.00;0.60;;;;;;;;;;4921948;28;20236;-79
2021/05/12 01:35:54;;;;;;;0.83;0.50;;;;;;;;;;4910826;28;20235;-79
2021/05/12 01:38:23;;;;;;;1.60;0.50;;;;;;;;;;4932406;28;20234;-79
2021/05/12 01:40:51;;;;;;;2.33;0.50;;;;;;;;;;4922740;28;20230;-79
2021/05/12 01:43:19;;;;;;;0.50;0.50;;;;;;;;;;4907166;29;20224;-79
2021/05/12 01:45:48;;;;;;;0.50;0.50;;;;;;;;;;4925570;28;20607;-79
2021/05/12 01:48:16;;;;;;;0.40;0.40;;;;;;;;;;4896303;29;20232;-78
2021/05/12 01:50:45;;;;;;;0.50;0.50;;;;;;;;;;4923951;28;20243;-82
2021/05/12 01:53:14;;;;;;;0.40;0.40;;;;;;;;;;4906088;29;20738;-80
2021/05/12 01:55:42;;;;;;;0.40;0.40;;;;;;;;;;4904785;28;20231;-80
2021/05/12 01:58:10;;;;;;;0.37;0.37;;;;;;;;;;4919333;28;20231;-79
2021/05/12 02:00:41;;;;;;;0.50;0.50;;;;;;;;;;4909819;29;20227;-79
2021/05/12 02:03:10;;;;;;;1.53;0.77;;;;;;;;;;4914292;28;20258;-79
2021/05/12 02:05:39;;;;;;;0.50;0.50;;;;;;;;;;4928921;28;20219;-78
2021/05/12 02:08:10;;;;;;;1.80;0.60;;;;;;;;;;4927801;28;20307;-81
2021/05/12 02:10:40;;;;;;;0.80;0.57;;;;;;;;;;4928647;28;20728;-78
2021/05/12 02:13:09;;;;;;;1.60;0.57;;;;;;;;;;4931973;28;20242;-78
2021/05/12 02:15:39;;;;;;;0.67;0.57;;;;;;;;;;4927302;28;20576;-79
2021/05/12 02:18:08;;;;;;;0.50;0.50;;;;;;;;;;4908427;28;20234;-78
2021/05/12 02:20:37;;;;;;;0.40;0.40;;;;;;;;;;4925018;28;20235;-78
2021/05/12 02:23:07;;;;;;;0.63;0.60;;;;;;;;;;4912898;28;20608;-79
2021/05/12 02:25:35;;;;;;;1.03;0.50;;;;;;;;;;4923567;29;20228;-78
2021/05/12 02:28:05;;;;;;;0.80;0.50;;;;;;;;;;4907210;28;20227;-79
2021/05/12 02:30:33;;;;;;;0.63;0.50;;;;;;;;;;4911909;29;20238;-78
2021/05/12 02:33:02;;;;;;;1.30;0.50;;;;;;;;;;4932117;28;20235;-78
2021/05/12 02:35:30;;;;;;;1.77;0.63;;;;;;;;;;4912299;29;20628;-78
2021/05/12 02:38:02;;;;;;;1.13;0.50;;;;;;;;;;4918503;28;20232;-78
2021/05/12 02:40:31;;;;;;;0.57;0.50;;;;;;;;;;4911336;29;20243;-78
2021/05/12 02:43:00;;;;;;;2.03;0.70;;;;;;;;;;4926263;28;20228;-78
2021/05/12 02:45:31;;;;;;;0.50;0.50;;;;;;;;;;4912493;29;20230;-81
2021/05/12 02:48:00;;;;;;;1.17;0.53;;;;;;;;;;4924008;28;20231;-82
2021/05/12 02:50:30;;;;;;;0.60;0.60;;;;;;;;;;4909892;29;20254;-80
2021/05/12 02:53:00;;;;;;;1.40;0.70;;;;;;;;;;4929077;28;20720;-78
2021/05/12 02:55:28;;;;;;;0.60;0.60;;;;;;;;;;4913062;28;20226;-79
2021/05/12 02:57:57;;;;;;;2.27;0.70;;;;;;;;;;4919196;28;20718;-79
2021/05/12 03:00:28;;;;;;;1.47;0.70;;;;;;;;;;4906219;29;20247;-79
2021/05/12 03:02:57;;;;;;;0.77;0.70;;;;;;;;;;4917946;28;20228;-80
2021/05/12 03:05:25;;;;;;;3.63;0.90;;;;;;;;;;4937850;28;20231;-82
2021/05/12 03:07:53;;;;;;;2.30;1.00;;;;;;;;;;4937124;28;20231;-78
2021/05/12 03:10:22;;;;;;;2.40;0.70;;;;;;;;;;4924305;28;20223;-79
2021/05/12 03:12:51;;;;;;;1.37;0.70;;;;;;;;;;4927702;28;20220;-82
2021/05/12 03:15:21;;;;;;;1.10;0.53;;;;;;;;;;4923103;28;20694;-79
2021/05/12 03:17:51;;;;;;;0.97;0.90;;;;;;;;;;4928007;28;20227;-79
2021/05/12 03:20:21;;;;;;;1.70;0.70;;;;;;;;;;4932987;29;20222;-85
2021/05/12 03:22:49;;;;;;;1.10;0.80;;;;;;;;;;4951128;28;20793;-79
2021/05/12 03:25:18;;;;;;;1.23;0.80;;;;;;;;;;4945535;28;20233;-80
2021/05/12 03:27:46;;;;;;;3.27;0.97;;;;;;;;;;4917673;29;20230;-79
2021/05/12 03:30:16;;;;;;;0.90;0.80;;;;;;;;;;4907814;29;20223;-79
2021/05/12 03:32:48;;;;;;;1.77;0.80;;;;;;;;;;4903055;29;20702;-78
2021/05/12 03:35:17;;;;;;;1.40;0.87;;;;;;;;;;4925162;28;20246;-79
2021/05/12 03:37:46;;;;;;;1.37;0.90;;;;;;;;;;4914225;28;20234;-80
2021/05/12 03:40:15;;;;;;;0.90;0.73;;;;;;;;;;4919158;28;20231;-78
2021/05/12 03:42:43;;;;;;;1.73;0.87;;;;;;;;;;4923034;28;20722;-81
2021/05/12 03:45:12;;;;;;;1.43;0.83;;;;;;;;;;4895747;28;20227;-83
2021/05/12 03:47:47;;;;;;;2.10;0.80;;;;;;;;;;4905003;28;20231;-79
2021/05/12 03:50:16;;;;;;;0.93;0.80;;;;;;;;;;4922348;28;21014;-81
2021/05/12 03:52:44;;;;;;;2.57;0.87;;;;;;;;;;4920230;28;20231;-79
2021/05/12 03:55:14;;;;;;;2.37;0.93;;;;;;;;;;4915804;28;20528;-78
2021/05/12 03:57:43;;;;;;;1.70;0.90;;;;;;;;;;4902009;29;20231;-78
2021/05/12 04:00:12;;;;;;;1.23;0.90;;;;;;;;;;4905658;28;20235;-78
2021/05/12 04:02:42;;;;;;;1.83;0.80;;;;;;;;;;4921342;28;20227;-79
2021/05/12 04:05:12;;;;;;;1.60;0.87;;;;;;;;;;4922683;28;20729;-80
2021/05/12 04:07:40;;;;;;;2.23;0.90;;;;;;;;;;4930036;28;20243;-80
2021/05/12 04:10:09;;;;;;;1.67;0.90;;;;;;;;;;4924241;28;20233;-83
2021/05/12 04:12:38;;;;;;;1.23;0.80;;;;;;;;;;4921086;28;20232;-80
2021/05/12 04:15:08;;;;;;;1.67;0.90;;;;;;;;;;4905287;28;20235;-79
2021/05/12 04:17:37;;;;;;;3.03;1.00;;;;;;;;;;4913014;28;20236;-79
2021/05/12 04:20:10;;;;;;;1.90;1.23;;;;;;;;;;4924939;28;20258;-79
2021/05/12 04:22:38;;;;;;;2.33;0.77;;;;;;;;;;4918109;28;20235;-81
2021/05/12 04:25:09;;;;;;;3.73;1.30;;;;;;;;;;4917270;28;20232;-78
2021/05/12 04:27:38;;;;;;;1.50;1.10;;;;;;;;;;4920032;28;20238;-79
2021/05/12 04:30:09;;;;;;;1.83;0.80;;;;;;;;;;4923084;28;20432;-78
2021/05/12 04:32:38;;;;;;;1.13;0.90;;;;;;;;;;4928911;28;20223;-81
2021/05/12 04:35:06;;;;;;;2.87;1.07;;;;;;;;;;4928383;28;20623;-79
2021/05/12 04:37:34;;;;;;;1.97;1.10;;;;;;;;;;4917597;28;20231;-81
2021/05/12 04:40:03;;;;;;;2.20;1.07;;;;;;;;;;4940267;28;20236;-81
2021/05/12 04:42:31;;;;;;;3.00;1.10;;;;;;;;;;4907614;29;20226;-80
2021/05/12 04:45:00;;;;;;;1.73;1.20;;;;;;;;;;4939408;28;20232;-79
2021/05/12 04:47:28;;;;;;;3.90;1.00;;;;;;;;;;4915673;28;20227;-80
2021/05/12 04:49:56;;;;;;;2.07;1.20;;;;;;;;;;4922997;28;20242;-84
2021/05/12 04:52:24;;;;;;;1.27;1.13;;;;;;;;;;4927845;28;20234;-85
2021/05/12 04:54:53;;;;;;;1.87;1.10;;;;;;;;;;4902446;28;20231;-83
2021/05/12 04:57:21;;;;;;;2.37;1.13;;;;;;;;;;4903013;29;20227;-81
2021/05/12 04:59:49;;;;;;;3.13;1.10;;;;;;;;;;4919090;28;20239;-84
2021/05/12 05:02:18;;;;;;;2.13;1.10;;;;;;;;;;4929202;28;20601;-82
2021/05/12 05:04:46;;;;;;;1.63;0.97;;;;;;;;;;4932691;28;20238;-82
2021/05/12 05:07:14;;;;;;;1.27;1.07;;;;;;;;;;4928252;28;20227;-84
2021/05/12 05:09:42;;;;;;;2.00;1.03;;;;;;;;;;4917514;29;20242;-80
2021/05/12 05:12:11;;;;;;;3.13;1.03;;;;;;;;;;4915257;28;20235;-81
2021/05/12 05:14:39;;;;;;;2.37;1.30;;;;;;;;;;4930958;28;20239;-88
2021/05/12 05:17:07;;;;;;;3.10;1.13;;;;;;;;;;4932566;28;20305;-83
2021/05/12 05:19:36;;;;;;;1.60;1.20;;;;;;;;;;4931043;28;20242;-80
2021/05/12 05:22:04;;;;;;;2.73;1.20;;;;;;;;;;4925750;28;20704;-84
2021/05/12 05:24:32;;;;;;;3.57;1.23;;;;;;;;;;4933820;28;20227;-85
2021/05/12 05:27:00;;;;;;;1.10;1.00;;;;;;;;;;4934531;28;20282;-85
2021/05/12 05:29:28;;;;;;;3.00;1.57;;;;;;;;;;4915701;28;20239;-84
2021/05/12 05:31:56;;;;;;;1.43;1.20;;;;;;;;;;4922507;28;20230;-81
2021/05/12 05:34:44;;;;;;;2.07;1.33;;;;;;;;;;4936234;28;20411;-82
2021/05/12 05:37:50;;;;;;;1.27;1.17;;;;;;;;;;4921798;28;20240;-86
2021/05/12 05:40:37;;;;;;;1.30;1.20;;;;;;;;;;4899587;29;20232;-87
2021/05/12 05:43:23;;;;;;;1.77;1.20;;;;;;;;;;4914401;28;21013;-82
2021/05/12 05:46:10;;;;;;;11.27;1.63;;;;;;;;;;4908999;28;20235;-85
2021/05/12 05:48:57;;;;;;;1.47;1.07;;;;;;;;;;4923741;28;20234;-81
2021/05/12 05:51:45;;;;;;;3.93;1.20;;;;;;;;;;4936085;28;20227;-81
2021/05/12 05:54:32;;;;;;;2.03;1.17;;;;;;;;;;4924457;28;20237;-83
2021/05/12 05:57:19;;;;;;;2.40;1.20;;;;;;;;;;4938793;28;20211;-85
2021/05/12 06:00:11;;;;;;;32.57;2.83;;;;;;;;;;4956867;28;20231;-89
2021/05/12 06:02:44;;;;;;;1.50;1.13;;;;;;;;;;4917535;28;20231;-83
2021/05/12 06:05:31;;;;;;;3.70;1.60;;;;;;;;;;4929329;28;20257;-81
2021/05/12 06:08:18;;;;;;;1.37;1.10;;;;;;;;;;4919430;28;20247;-83
2021/05/12 06:11:10;;;;;;;1.67;1.30;;;;;;;;;;4927546;28;20353;-83
2021/05/12 06:13:57;;;;;;;2.10;1.20;;;;;;;;;;4932655;28;20721;-86
2021/05/12 06:16:43;;;;;;;3.17;1.30;;;;;;;;;;4931095;28;20788;-83
2021/05/12 06:19:30;;;;;;;1.93;1.30;;;;;;;;;;4926772;28;20231;-87
2021/05/12 06:22:17;;;;;;;1.93;1.13;;;;;;;;;;4931763;28;20231;-86
2021/05/12 06:25:06;;;;;;;2.67;1.30;;;;;;;;;;4918834;28;20227;-83
2021/05/12 06:27:53;;;;;;;1.73;1.17;;;;;;;;;;4932829;28;20235;-87
2021/05/12 06:30:39;;;;;;;2.33;1.20;;;;;;;;;;4927022;28;21266;-87
2021/05/12 06:33:28;;;;;;;5.00;1.30;;;;;;;;;;4933104;28;20235;-88
2021/05/12 06:36:15;;;;;;;2.07;1.50;;;;;;;;;;4926659;28;20235;-84
2021/05/12 06:39:03;;;;;;;4.00;1.90;;;;;;;;;;4937639;28;20226;-87
2021/05/12 06:41:32;;;;;;;1.83;1.23;;;;;;;;;;4943616;28;20296;-89
2021/05/12 06:44:00;;;;;;;1.17;1.07;;;;;;;;;;4943979;28;20243;-87
2021/05/12 06:46:28;;;;;;;3.07;1.60;;;;;;;;;;4944263;28;20234;-86
2021/05/12 06:48:56;;;;;;;2.37;1.30;;;;;;;;;;4928137;28;20230;-86
2021/05/12 06:51:24;;;;;;;3.27;1.40;;;;;;;;;;4927207;29;20232;-82
2021/05/12 06:53:52;;;;;;;2.20;1.23;;;;;;;;;;4938635;28;20232;-82
2021/05/12 06:56:20;;;;;;;3.87;1.73;;;;;;;;;;4919801;28;20698;-82
2021/05/12 06:58:49;;;;;;;2.53;1.77;;;;;;;;;;4918037;29;20246;-80
2021/05/12 07:01:17;;;;;;;13.93;1.90;;;;;;;;;;4925502;28;20227;-80
2021/05/12 07:03:45;;;;;;;1.73;1.30;;;;;;;;;;4938155;28;20242;-80
2021/05/12 07:06:13;;;;;;;2.70;1.50;;;;;;;;;;4938538;28;20238;-82
2021/05/12 07:08:41;;;;;;;2.03;1.20;;;;;;;;;;4921819;28;20239;-81
2021/05/12 07:11:10;;;;;;;2.60;1.40;;;;;;;;;;4918566;28;20235;-81
2021/05/12 07:13:38;;;;;;;3.37;1.70;;;;;;;;;;4903976;28;20224;-78
2021/05/12 07:16:07;;;;;;;1.57;1.00;;;;;;;;;;4903241;28;20231;-81
2021/05/12 07:18:35;;;;;;;2.67;1.43;;;;;;;;;;4922545;28;20239;-82
2021/05/12 07:21:04;;;;;;;2.50;1.27;;;;;;;;;;4928489;28;20686;-78
2021/05/12 07:23:32;;;;;;;1.93;1.43;;;;;;;;;;4921294;28;20309;-81
2021/05/12 07:26:02;;;;;;;1.67;1.30;;;;;;;;;;4907942;28;20227;-78
2021/05/12 07:28:30;;;;;;;1.63;1.10;;;;;;;;;;4923783;28;20317;-79
2021/05/12 07:30:58;;;;;;;6.80;1.40;;;;;;;;;;4904045;28;20232;-78
2021/05/12 07:33:42;;;;;;;3.00;2.20;;;;;;;;;;4924483;28;20234;-80
2021/05/12 07:36:10;;;;;;;1.93;0.90;;;;;;;;;;4926164;28;20235;-78
2021/05/12 07:38:38;;;;;;;1.60;1.20;;;;;;;;;;4931821;28;20736;-79
2021/05/12 07:41:06;;;;;;;2.97;1.20;;;;;;;;;;4923506;28;20417;-78
2021/05/12 07:43:34;;;;;;;2.23;1.30;;;;;;;;;;4915442;28;20796;-81
2021/05/12 07:46:03;;;;;;;3.00;1.37;;;;;;;;;;4905429;28;20234;-79
2021/05/12 07:48:31;;;;;;;1.93;1.60;;;;;;;;;;4930688;28;20605;-80
2021/05/12 07:51:00;;;;;;;2.17;1.60;;;;;;;;;;4926312;28;20231;-78
2021/05/12 07:53:28;;;;;;;6.17;1.77;;;;;;;;;;4923700;28;20223;-82
2021/05/12 07:55:56;;;;;;;2.30;1.23;;;;;;;;;;4925090;28;20603;-78
2021/05/12 07:58:24;;;;;;;3.67;1.60;;;;;;;;;;4931033;28;20227;-78
2021/05/12 08:00:52;;;;;;;2.50;1.20;;;;;;;;;;4910494;28;20238;-78
2021/05/12 08:03:21;;;;;;;1.73;1.50;;;;;;;;;;4943449;28;20629;-78
2021/05/12 08:05:50;;;;;;;5.53;1.60;;;;;;;;;;4930633;28;20246;-78
2021/05/12 08:08:19;;;;;;;2.70;1.60;;;;;;;;;;4930456;28;20722;-78
2021/05/12 08:10:47;;;;;;;2.87;2.30;;;;;;;;;;4923415;28;20239;-81
2021/05/12 08:13:15;;;;;;;5.83;1.83;;;;;;;;;;4924790;28;20603;-80
2021/05/12 08:15:43;;;;;;;3.77;2.20;;;;;;;;;;4919028;28;20220;-82
2021/05/12 08:18:11;;;;;;;2.27;1.80;;;;;;;;;;4922669;28;20228;-78
2021/05/12 08:20:39;;;;;;;4.37;1.83;;;;;;;;;;4927285;28;20890;-78
2021/05/12 08:23:07;;;;;;;5.43;1.50;;;;;;;;;;4922180;28;20234;-78
2021/05/12 08:25:42;;;;;;;3.80;1.67;;;;;;;;;;4917176;28;20231;-78
2021/05/12 08:28:11;;;;;;;2.40;1.53;;;;;;;;;;4916315;28;20692;-81
2021/05/12 08:30:44;;;;;;;5.73;1.70;;;;;;;;;;4922917;28;20220;-78
2021/05/12 08:33:13;;;;;;;2.10;1.33;;;;;;;;;;4928147;28;20230;-78
2021/05/12 08:35:42;;;;;;;3.83;1.50;;;;;;;;;;4919677;28;20227;-78
2021/05/12 08:38:14;;;;;;;2.20;1.57;;;;;;;;;;4922695;28;20231;-79
2021/05/12 08:40:44;;;;;;;2.27;1.50;;;;;;;;;;4922865;28;20722;-78
2021/05/12 08:43:13;;;;;;;2.87;1.83;;;;;;;;;;4914499;28;20224;-78
2021/05/12 08:45:43;;;;;;;3.40;1.33;;;;;;;;;;4914258;28;20224;-80
2021/05/12 08:48:14;;;;;;;2.93;1.50;;;;;;;;;;4906033;28;20232;-79
2021/05/12 08:50:45;;;;;;;4.23;1.73;;;;;;;;;;4929706;28;20211;-80
2021/05/12 08:53:13;;;;;;;2.60;1.30;;;;;;;;;;4940266;28;20233;-79
2021/05/12 08:55:41;;;;;;;2.40;1.40;;;;;;;;;;4947576;28;20231;-79
2021/05/12 08:58:09;;;;;;;4.47;1.50;;;;;;;;;;4945352;28;20234;-80
2021/05/12 09:00:39;;;;;;;2.97;1.50;;;;;;;;;;4923229;28;20231;-78
2021/05/12 09:03:07;;;;;;;3.27;1.80;;;;;;;;;;4945926;28;20233;-80
2021/05/12 09:05:36;;;;;;;2.57;1.63;;;;;;;;;;4940078;28;20701;-82
2021/05/12 09:08:05;;;;;;;2.83;1.77;;;;;;;;;;4931072;28;20216;-78
2021/05/12 09:10:33;;;;;;;4.37;1.70;;;;;;;;;;4905861;28;20219;-78
2021/05/12 09:13:01;;;;;;;2.57;1.60;;;;;;;;;;4918854;28;20228;-78
2021/05/12 09:15:31;;;;;;;1.93;1.40;;;;;;;;;;4910110;29;20236;-78
2021/05/12 09:18:01;;;;;;;2.97;1.87;;;;;;;;;;4912117;28;20231;-79
2021/05/12 09:20:37;;;;;;;4.37;1.70;;;;;;;;;;4897316;28;20236;-79
2021/05/12 09:23:13;;;;;;;2.70;1.70;;;;;;;;;;4917594;28;20239;-79
2021/05/12 09:25:50;;;;;;;2.17;1.70;;;;;;;;;;4913355;28;20609;-78
2021/05/12 09:28:20;;;;;;;3.07;1.63;;;;;;;;;;4911351;28;20246;-78
2021/05/12 09:31:02;;;;;;;5.33;1.67;;;;;;;;;;4910839;28;20599;-78
2021/05/12 09:33:32;;;;;;;2.23;1.57;;;;;;;;;;4910372;28;20239;-78
2021/05/12 09:36:00;;;;;;;2.23;1.50;;;;;;;;;;4921924;28;20228;-80
2021/05/12 09:38:30;;;;;;;2.10;1.47;;;;;;;;;;4920246;28;20235;-78
2021/05/12 09:41:03;;;;;;;3.37;1.50;;;;;;;;;;4919990;28;20242;-78
2021/05/12 09:43:33;;;;;;;3.27;1.70;;;;;;;;;;4925834;28;20231;-78
2021/05/12 09:46:22;;;;;;;2.83;1.90;;;;;;;;;;4919610;28;20705;-78
2021/05/12 09:49:21;;;;;;;4.23;2.07;;;;;;;;;;4915778;28;20227;-78
2021/05/12 09:51:50;;;;;;;2.37;1.60;;;;;;;;;;4906760;29;20229;-78
2021/05/12 09:54:20;;;;;;;5.03;2.10;;;;;;;;;;4903366;29;20721;-78
2021/05/12 09:56:51;;;;;;;5.10;1.83;;;;;;;;;;4918425;28;20227;-78
2021/05/12 09:59:21;;;;;;;2.73;1.63;;;;;;;;;;4900475;28;20235;-78
2021/05/12 10:01:54;;;;;;;2.27;1.83;;;;;;;;;;4913824;28;20235;-82
2021/05/12 10:04:34;;;;;;;2.87;1.87;;;;;;;;;;4918957;28;20231;-78
2021/05/12 10:07:13;;;;;;;2.73;1.90;;;;;;;;;;4912433;28;20227;-79
2021/05/12 10:09:42;;;;;;;3.77;2.20;;;;;;;;;;4914554;28;20235;-78
2021/05/12 10:12:13;;;;;;;5.43;1.90;;;;;;;;;;4897053;28;20693;-78
2021/05/12 10:14:43;;;;;;;4.20;2.20;;;;;;;;;;4918916;28;20235;-78
2021/05/12 10:17:14;;;;;;;4.87;2.00;;;;;;;;;;4916234;28;20242;-79
2021/05/12 10:20:01;;;;;;;2.87;1.90;;;;;;;;;;4916310;28;20232;-78
2021/05/12 10:22:31;;;;;;;3.47;1.97;;;;;;;;;;4924648;28;20227;-78
2021/05/12 10:24:59;;;;;;;2.83;1.90;;;;;;;;;;4922919;28;20250;-78
2021/05/12 10:27:28;;;;;;;1.73;1.53;;;;;;;;;;4926943;28;20219;-78
2021/05/12 10:29:58;;;;;;;3.50;2.00;;;;;;;;;;4925139;28;20239;-78
2021/05/12 10:32:31;;;;;;;3.03;1.80;;;;;;;;;;4939969;28;20227;-78
2021/05/12 10:35:00;;;;;;;3.60;2.20;;;;;;;;;;4923782;28;20229;-77
2021/05/12 10:37:29;;;;;;;2.43;2.03;;;;;;;;;;4921622;28;20254;-78
2021/05/12 10:40:00;;;;;;;4.67;2.00;;;;;;;;;;4903007;28;20232;-78
2021/05/12 10:43:05;;;;;;;2.88;1.90;;;;;;;;;;4926256;28;20718;-78
2021/05/12 10:45:57;;;;;;;2.30;1.90;;;;;;;;;;4916435;28;20238;-79
2021/05/12 10:48:34;;;;;;;3.42;2.08;;;;;;;;;;4918263;28;20489;-78
2021/05/12 10:51:04;;;;;;;2.83;2.00;;;;;;;;;;4923932;28;20228;-78
2021/05/12 10:53:33;;;;;;;2.40;1.83;;;;;;;;;;4931401;28;20235;-78
2021/05/12 10:56:03;;;;;;;2.85;2.30;;;;;;;;;;4923906;28;20769;-77
2021/05/12 10:58:33;;;;;;;2.28;1.73;;;;;;;;;;4914597;29;20238;-77
2021/05/12 11:01:03;;;;;;;3.72;1.80;;;;;;;;;;4913272;28;20733;-78
2021/05/12 11:04:09;;;;;;;2.22;1.73;;;;;;;;;;4916493;28;20296;-78
2021/05/12 11:07:04;;;;;;;4.65;2.75;;;;;;;;;;4922941;28;20238;-79
2021/05/12 11:09:50;;;;;;;2.67;1.95;;;;;;;;;;4915987;28;20227;-79
2021/05/12 11:12:31;;;;;;;3.10;1.70;;;;;;;;;;4916426;28;20238;-79
2021/05/12 11:15:07;;;;;;;2.53;1.70;;;;;;;;;;4909572;28;20239;-79
2021/05/12 11:17:50;;;;;;;3.20;1.80;;;;;;;;;;4930291;28;20779;-78
2021/05/12 11:20:24;;;;;;;3.58;1.80;;;;;;;;;;4930432;28;20223;-78
2021/05/12 11:22:56;;;;;;;1.83;1.73;;;;;;;;;;4937132;28;20223;-80
2021/05/12 11:25:31;;;;;;;2.20;1.77;;;;;;;;;;4905008;28;20227;-80
2021/05/12 11:31:28;;;;;;;3.93;2.03;;;;;;;;;;4925472;28;20231;-78
2021/05/12 11:33:57;;;;;;;3.10;1.77;;;;;;;;;;4922302;28;20236;-78
2021/05/12 11:36:33;;;;;;;3.77;1.97;;;;;;;;;;4900743;29;20227;-78
2021/05/12 11:39:03;;;;;;;4.87;1.90;;;;;;;;;;4909049;28;20739;-79
2021/05/12 11:41:31;;;;;;;10.83;8.13;;;;;;;;;;4894733;28;20239;-80
2021/05/12 11:44:02;;;;;;;3.37;1.97;;;;;;;;;;4933819;28;20227;-78
2021/05/12 11:46:32;;;;;;;3.10;2.10;;;;;;;;;;4922699;28;20231;-80
2021/05/12 11:49:03;;;;;;;2.47;1.70;;;;;;;;;;4949710;28;20235;-79
2021/05/12 11:51:34;;;;;;;5.07;1.90;;;;;;;;;;4938503;28;20221;-78
2021/05/12 11:54:05;;;;;;;3.73;1.60;;;;;;;;;;4915590;28;20238;-77
2021/05/12 11:56:34;;;;;;;3.30;1.77;;;;;;;;;;4922752;28;20227;-78
2021/05/12 11:59:04;;;;;;;2.17;1.60;;;;;;;;;;4916153;28;20231;-79
2021/05/12 12:01:38;;;;;;;2.87;2.03;;;;;;;;;;4901744;28;20307;-79
2021/05/12 12:04:21;;;;;;;3.30;2.47;;;;;;;;;;4914793;28;20230;-80
2021/05/12 12:06:49;;;;;;;4.17;2.50;;;;;;;;;;4922089;28;20298;-79
2021/05/12 12:09:20;;;;;;;4.13;2.60;;;;;;;;;;4917559;28;20761;-78
2021/05/12 12:11:48;;;;;;;3.63;2.00;;;;;;;;;;4899778;28;20606;-78
2021/05/12 12:14:16;;;;;;;7.40;2.20;;;;;;;;;;4900045;28;20819;-77
2021/05/12 12:16:46;;;;;;;5.43;2.10;;;;;;;;;;4902880;28;20227;-77
2021/05/12 12:19:16;;;;;;;3.47;2.37;;;;;;;;;;4919683;28;20713;-77
2021/05/12 12:21:45;;;;;;;4.37;2.20;;;;;;;;;;4904534;29;20235;-78
2021/05/12 12:24:15;;;;;;;3.93;2.40;;;;;;;;;;4918334;28;20219;-78
2021/05/12 12:26:51;;;;;;;2.90;1.90;;;;;;;;;;4904240;28;20227;-78
2021/05/12 12:29:21;;;;;;;3.70;2.28;;;;;;;;;;4937082;28;20794;-77
2021/05/12 12:31:51;;;;;;;3.73;1.87;;;;;;;;;;4920467;28;20227;-77
2021/05/12 12:34:21;;;;;;;3.97;2.00;;;;;;;;;;4904173;28;20634;-77
2021/05/12 12:36:55;;;;;;;4.17;2.27;;;;;;;;;;4906979;28;20238;-77
2021/05/12 12:39:43;;;;;;;2.80;2.03;;;;;;;;;;4926323;28;20956;-78
2021/05/12 12:42:15;;;;;;;4.20;2.80;;;;;;;;;;4915217;28;20227;-78
2021/05/12 12:44:48;;;;;;;4.90;2.50;;;;;;;;;;4916711;28;20224;-78
2021/05/12 12:47:19;;;;;;;4.10;2.33;;;;;;;;;;4909831;28;20236;-78
2021/05/12 12:49:52;;;;;;;3.73;1.90;;;;;;;;;;4912911;28;20239;-78
2021/05/12 12:52:22;;;;;;;2.80;2.20;;;;;;;;;;4922776;28;20235;-78
2021/05/12 12:55:07;;;;;;;2.43;1.80;;;;;;;;;;4926090;28;20548;-78
2021/05/12 12:57:38;;;;;;;4.00;1.93;;;;;;;;;;4930979;28;20231;-79
2021/05/12 13:00:18;;;;;;;4.57;2.30;;;;;;;;;;4925567;28;20565;-78
2021/05/12 13:03:03;;;;;;;3.67;1.90;;;;;;;;;;4929000;28;20223;-79
2021/05/12 13:05:37;;;;;;;2.63;1.80;;;;;;;;;;4930508;28;20215;-78
2021/05/12 13:08:17;;;;;;;3.27;2.17;;;;;;;;;;4909849;28;20224;-78
2021/05/12 13:11:11;;;;;;;6.27;2.03;;;;;;;;;;4928042;28;20231;-79
2021/05/12 13:13:44;;;;;;;3.13;1.90;;;;;;;;;;4918788;28;20246;-78
2021/05/12 13:16:17;;;;;;;2.87;1.77;;;;;;;;;;4930567;28;20724;-79
2021/05/12 13:18:50;;;;;;;4.30;2.03;;;;;;;;;;4927874;28;20239;-80
2021/05/12 13:21:20;;;;;;;3.00;2.10;;;;;;;;;;4924838;28;20706;-79
2021/05/12 13:23:59;;;;;;;3.37;1.93;;;;;;;;;;4927107;28;20234;-80
2021/05/12 13:26:30;;;;;;;3.73;2.17;;;;;;;;;;4922282;28;20238;-80
2021/05/12 13:28:59;;;;;;;4.10;1.93;;;;;;;;;;4926246;28;20215;-79
2021/05/12 13:31:31;;;;;;;6.00;2.10;;;;;;;;;;4941274;28;20214;-81
2021/05/12 13:34:00;;;;;;;2.83;2.13;;;;;;;;;;4952953;28;20226;-79
2021/05/12 13:36:29;;;;;;;4.03;2.20;;;;;;;;;;4944444;29;20207;-80
2021/05/12 13:38:57;;;;;;;3.50;1.97;;;;;;;;;;4954515;28;20237;-79
2021/05/12 13:41:25;;;;;;;4.40;2.00;;;;;;;;;;4932115;28;20248;-78
2021/05/12 13:43:53;;;;;;;3.63;2.20;;;;;;;;;;4928457;28;20558;-79
2021/05/12 13:46:22;;;;;;;7.50;2.20;;;;;;;;;;4931171;28;20238;-78
2021/05/12 13:48:52;;;;;;;3.30;1.80;;;;;;;;;;4923543;28;20325;-79
2021/05/12 13:51:20;;;;;;;3.53;1.70;;;;;;;;;;4932157;28;20238;-79
2021/05/12 13:53:54;;;;;;;6.30;2.33;;;;;;;;;;4928507;28;20276;-79
2021/05/12 13:56:29;;;;;;;3.83;2.53;;;;;;;;;;4933511;28;20227;-79
2021/05/12 13:59:13;;;;;;;3.00;1.73;;;;;;;;;;4916306;28;20708;-78
2021/05/12 14:04:27;;;;;;;2.13;1.50;;;;;;;;;;4928066;28;20230;-78
2021/05/12 14:06:55;;;;;;;3.47;1.90;;;;;;;;;;4933981;28;20228;-78
2021/05/12 14:09:25;;;;;;;3.47;1.83;;;;;;;;;;4916116;29;20704;-78
2021/05/12 14:11:56;;;;;;;3.00;2.00;;;;;;;;;;4931503;28;20231;-78
2021/05/12 14:14:35;;;;;;;3.30;1.60;;;;;;;;;;4932245;28;20250;-79
2021/05/12 14:17:11;;;;;;;4.23;1.70;;;;;;;;;;4923644;28;20234;-78
2021/05/12 14:19:39;;;;;;;6.17;2.03;;;;;;;;;;4913868;28;20702;-78
2021/05/12 14:22:07;;;;;;;2.87;1.80;;;;;;;;;;4925068;28;20238;-78
2021/05/12 14:24:36;;;;;;;3.90;1.80;;;;;;;;;;4934338;28;20223;-78
2021/05/12 14:27:05;;;;;;;3.97;2.30;;;;;;;;;;4943958;28;20231;-78
2021/05/12 14:29:36;;;;;;;4.90;2.37;;;;;;;;;;4947471;28;20242;-77
2021/05/12 14:32:06;;;;;;;3.80;2.10;;;;;;;;;;4939069;28;20235;-79
2021/05/12 14:34:35;;;;;;;5.60;2.03;;;;;;;;;;4929675;28;20231;-78
2021/05/12 14:37:04;;;;;;;5.90;1.90;;;;;;;;;;4932349;28;20247;-78
2021/05/12 14:39:34;;;;;;;3.57;1.70;;;;;;;;;;4921148;29;20246;-80
2021/05/12 14:42:05;;;;;;;7.03;2.50;;;;;;;;;;4919516;28;20242;-78
2021/05/12 14:44:33;;;;;;;2.80;1.83;;;;;;;;;;4953070;28;20223;-81
2021/05/12 14:47:01;;;;;;;5.50;2.20;;;;;;;;;;4958025;28;20215;-80
2021/05/12 14:49:33;;;;;;;4.33;2.60;;;;;;;;;;4943457;28;20697;-78
2021/05/12 14:52:09;;;;;;;6.53;2.77;;;;;;;;;;4927986;28;20231;-80
2021/05/12 14:54:41;;;;;;;5.27;2.20;;;;;;;;;;4920700;29;20224;-79
2021/05/12 14:57:22;;;;;;;2.60;1.93;;;;;;;;;;4920314;28;20235;-78
2021/05/12 15:05:33;;;;;;;2.87;2.20;;;;;;;;;;4933702;28;20709;-78
2021/05/12 15:08:04;;;;;;;2.60;2.00;;;;;;;;;;4926446;28;20242;-79
2021/05/12 15:10:32;;;;;;;5.00;2.47;;;;;;;;;;4932192;28;20240;-79
2021/05/12 15:13:00;;;;;;;5.97;2.20;;;;;;;;;;4918349;28;20228;-78
2021/05/12 15:15:28;;;;;;;4.83;2.00;;;;;;;;;;4919805;29;20224;-79
2021/05/12 15:17:56;;;;;;;4.47;2.00;;;;;;;;;;4931222;28;20235;-79
2021/05/12 15:20:25;;;;;;;3.77;2.07;;;;;;;;;;4925245;28;20231;-82
2021/05/12 15:22:54;;;;;;;3.83;2.00;;;;;;;;;;4929913;28;20224;-81